createdAt,value
2023-03-29T00:04:55.412Z,100417.16
2023-03-29T00:10:04.827Z,100412.83
2023-03-29T00:15:09.240Z,100410.89
2023-03-29T00:20:14.680Z,100408.52
2023-03-29T00:25:18.241Z,100410.33
2023-03-29T00:30:24.295Z,100408.39
2023-03-29T00:35:29.360Z,100405.31
2023-03-29T00:40:35.850Z,100408.07
2023-03-29T00:45:41.071Z,100405.27
2023-03-29T00:50:56.383Z,100406.69
2023-03-29T00:56:21.847Z,100404.52
2023-03-29T01:01:55.428Z,100402.08
2023-03-29T01:07:18.849Z,100405.33
2023-03-29T01:12:33.781Z,100400.88
2023-03-29T01:17:40.364Z,100401.10
2023-03-29T01:23:08.283Z,100396.30
2023-03-29T01:28:32.300Z,100397.31
2023-03-29T01:33:49.732Z,100391.23
2023-03-29T01:38:58.391Z,100393.34
2023-03-29T01:44:35.437Z,100388.39
2023-03-29T01:49:48.042Z,100389.14
2023-03-29T01:55:14.046Z,100396.13
2023-03-29T02:00:23.286Z,100388.77
2023-03-29T02:05:32.959Z,100385.53
2023-03-29T02:10:38.558Z,100382.50
2023-03-29T02:15:45.939Z,100382.07
2023-03-29T02:20:51.876Z,100381.88
2023-03-29T02:25:57.454Z,100381.10
2023-03-29T02:31:34.974Z,100376.45
2023-03-29T02:36:55.422Z,100375.20
2023-03-29T02:42:01.898Z,100377.13
2023-03-29T02:47:17.988Z,100380.21
2023-03-29T02:52:42.536Z,100374.68
2023-03-29T02:57:47.710Z,100376.05
2023-03-29T03:02:52.730Z,100379.80
2023-03-29T03:07:59.036Z,100375.86
2023-03-29T03:13:04.720Z,100377.23
2023-03-29T03:18:09.997Z,100378.02
2023-03-29T03:23:14.206Z,100373.74
2023-03-29T03:28:19.223Z,100377.57
2023-03-29T03:33:23.143Z,100381.00
2023-03-29T03:38:27.911Z,100383.98
2023-03-29T03:43:31.750Z,100389.63
2023-03-29T03:48:38.709Z,100393.98
2023-03-29T03:53:42.793Z,100397.33
2023-03-29T03:58:49.145Z,100396.27
2023-03-29T04:03:54.390Z,100399.80
2023-03-29T04:09:00.241Z,100400.55
2023-03-29T04:14:05.308Z,100398.66
2023-03-29T04:19:09.736Z,100396.60
2023-03-29T04:24:15.261Z,100394.35
2023-03-29T04:29:19.605Z,100390.38
2023-03-29T04:34:24.482Z,100384.43
2023-03-29T04:39:34.999Z,100385.02
2023-03-29T04:44:40.997Z,100386.87
2023-03-29T04:49:45.396Z,100392.47
2023-03-29T04:54:49.947Z,100392.73
2023-03-29T04:59:54.232Z,100393.52
2023-03-29T05:04:59.351Z,100390.73
2023-03-29T05:10:04.613Z,100392.77
2023-03-29T05:15:10.231Z,100394.02
2023-03-29T05:20:14.973Z,100393.95
2023-03-29T05:25:19.989Z,100394.26
2023-03-29T05:30:24.687Z,100393.66
2023-03-29T05:35:30.021Z,100395.23
2023-03-29T05:40:34.880Z,100396.91
2023-03-29T05:45:39.702Z,100392.00
2023-03-29T05:50:49.927Z,100390.69
2023-03-29T05:55:54.998Z,100392.95
2023-03-29T06:01:01.567Z,100387.61
2023-03-29T06:06:05.889Z,100391.54
2023-03-29T06:11:11.503Z,100389.34
2023-03-29T06:16:15.442Z,100392.00
2023-03-29T06:21:19.927Z,100385.33
2023-03-29T06:26:23.440Z,100384.34
2023-03-29T06:31:27.035Z,100381.86
2023-03-29T06:36:31.923Z,100381.71
2023-03-29T06:41:35.568Z,100380.45
2023-03-29T06:46:39.598Z,100384.34
2023-03-29T06:51:43.543Z,100382.52
2023-03-29T06:56:47.757Z,100381.98
2023-03-29T07:01:53.007Z,100374.02
2023-03-29T07:07:06.951Z,100378.46
2023-03-29T07:12:11.428Z,100371.33
2023-03-29T07:17:17.453Z,100365.81
2023-03-29T07:22:24.798Z,100369.29
2023-03-29T07:27:28.866Z,100369.34
2023-03-29T07:32:34.291Z,100363.77
2023-03-29T07:37:38.454Z,100366.09
2023-03-29T07:42:47.025Z,100359.29
2023-03-29T07:47:55.948Z,100357.04
2023-03-29T07:53:01.107Z,100354.11
2023-03-29T07:58:04.791Z,100347.92
2023-03-29T08:03:12.896Z,100343.08
2023-03-29T08:08:16.647Z,100344.45
2023-03-29T08:13:19.951Z,100341.22
2023-03-29T08:18:24.305Z,100336.66
2023-03-29T08:23:28.338Z,100336.45
2023-03-29T08:28:32.445Z,100327.82
2023-03-29T08:33:36.905Z,100331.60
2023-03-29T08:38:41.011Z,100329.87
2023-03-29T08:43:53.217Z,100323.40
2023-03-29T08:49:03.025Z,100322.39
2023-03-29T08:54:12.932Z,100317.45
2023-03-29T08:59:32.984Z,100319.29
2023-03-29T09:04:40.042Z,100319.01
2023-03-29T09:09:47.782Z,100312.85
2023-03-29T09:14:52.837Z,100296.68
2023-03-29T09:20:28.180Z,100295.52
2023-03-29T09:25:54.388Z,100284.17
2023-03-29T09:31:14.792Z,100281.38
2023-03-29T09:36:53.137Z,100286.73
2023-03-29T09:42:08.314Z,100279.50
2023-03-29T09:47:24.048Z,100276.16
2023-03-29T09:52:28.590Z,100275.97
2023-03-29T09:57:32.992Z,100278.13
2023-03-29T10:02:37.031Z,100273.84
2023-03-29T10:07:46.045Z,100271.77
2023-03-29T10:12:52.196Z,100269.52
2023-03-29T10:18:07.188Z,100262.32
2023-03-29T10:23:19.923Z,100264.55
2023-03-29T10:28:27.137Z,100252.73
2023-03-29T10:33:35.070Z,100252.53
2023-03-29T10:38:40.310Z,100250.48
2023-03-29T10:43:47.868Z,100243.01
2023-03-29T10:49:07.031Z,100238.11
2023-03-29T10:54:15.681Z,100233.88
2023-03-29T10:59:41.289Z,100229.42
2023-03-29T11:04:53.331Z,100228.69
2023-03-29T11:10:27.982Z,100224.68
2023-03-29T11:16:03.200Z,100221.17
2023-03-29T11:21:14.511Z,100201.27
2023-03-29T11:26:27.672Z,100193.58
2023-03-29T11:32:10.231Z,100188.03
2023-03-29T11:37:40.972Z,100176.53
2023-03-29T11:42:49.008Z,100170.96
2023-03-29T11:47:54.725Z,100173.59
2023-03-29T11:53:05.650Z,100172.35
2023-03-29T11:58:23.667Z,100164.13
2023-03-29T12:04:05.915Z,100155.13
2023-03-29T12:09:25.759Z,100151.03
2023-03-29T12:15:02.375Z,100146.84
2023-03-29T12:20:29.815Z,100137.52
2023-03-29T12:26:01.214Z,100124.53
2023-03-29T12:31:21.267Z,100109.04
2023-03-29T12:37:07.212Z,100106.02
2023-03-29T12:42:20.078Z,100103.13
2023-03-29T12:47:28.184Z,100101.72
2023-03-29T12:52:36.525Z,100092.91
2023-03-29T12:57:45.557Z,100087.10
2023-03-29T13:03:04.947Z,100080.11
2023-03-29T13:08:22.940Z,100073.23
2023-03-29T13:13:38.896Z,100072.30
2023-03-29T13:19:03.434Z,100071.27
2023-03-29T13:24:22.433Z,100070.55
2023-03-29T13:29:54.023Z,100061.02
2023-03-29T13:35:16.518Z,100056.52
2023-03-29T13:40:47.057Z,100049.59
2023-03-29T13:45:59.993Z,100045.23
2023-03-29T13:51:27.719Z,100040.30
2023-03-29T13:56:52.872Z,100037.42
2023-03-29T14:02:00.948Z,100038.17
2023-03-29T14:07:10.140Z,100036.08
2023-03-29T14:12:16.176Z,100034.64
2023-03-29T14:17:24.083Z,100029.47
2023-03-29T14:22:34.429Z,100034.46
2023-03-29T14:27:38.220Z,100026.56
2023-03-29T14:32:41.937Z,100028.79
2023-03-29T14:37:46.860Z,100029.18
2023-03-29T14:42:51.656Z,100022.15
2023-03-29T14:47:55.945Z,100015.30
2023-03-29T14:53:01.015Z,100015.51
2023-03-29T14:58:16.804Z,100010.82
2023-03-29T15:03:27.889Z,100002.11
2023-03-29T15:08:38.228Z,100001.77
2023-03-29T15:13:45.385Z,99997.52
2023-03-29T15:18:53.570Z,100004.93
2023-03-29T15:24:00.983Z,99995.92
2023-03-29T15:29:23.842Z,99983.68
2023-03-29T15:34:30.098Z,99981.23
2023-03-29T15:39:34.000Z,99978.03
2023-03-29T15:44:39.701Z,99971.09
2023-03-29T15:49:43.659Z,99965.72
2023-03-29T15:54:47.867Z,99959.43
2023-03-29T15:59:52.154Z,99956.81
2023-03-29T16:04:56.069Z,99954.60
2023-03-29T16:09:59.698Z,99941.82
2023-03-29T16:15:19.190Z,99943.23
2023-03-29T16:20:22.642Z,99943.20
2023-03-29T16:25:28.214Z,99941.55
2023-03-29T16:30:33.107Z,99938.95
2023-03-29T16:35:40.884Z,99939.69
2023-03-29T16:40:45.778Z,99928.50
2023-03-29T16:45:49.950Z,99918.02
2023-03-29T16:50:53.442Z,99915.73
2023-03-29T16:56:05.970Z,99914.42
2023-03-29T17:01:13.676Z,99915.68
2023-03-29T17:06:17.827Z,99917.52
2023-03-29T17:11:24.387Z,99915.45
2023-03-29T17:16:29.595Z,99924.73
2023-03-29T17:21:34.251Z,99920.87
2023-03-29T17:26:38.545Z,99926.94
2023-03-29T17:31:48.115Z,99926.52
2023-03-29T17:36:53.915Z,99922.83
2023-03-29T17:41:57.572Z,99921.96
2023-03-29T17:47:01.984Z,99929.89
2023-03-29T17:52:07.048Z,99929.71
2023-03-29T17:57:11.904Z,99927.74
2023-03-29T18:02:22.285Z,99921.88
2023-03-29T18:07:26.036Z,99930.92
2023-03-29T18:12:30.555Z,99936.48
2023-03-29T18:17:37.441Z,99942.86
2023-03-29T18:22:42.729Z,99946.09
2023-03-29T18:27:47.285Z,99938.31
2023-03-29T18:32:53.487Z,99945.57
2023-03-29T18:37:59.616Z,99950.19
2023-03-29T18:43:03.871Z,99949.18
2023-03-29T18:48:08.431Z,99944.95
2023-03-29T18:53:15.869Z,99940.91
2023-03-29T18:58:24.259Z,99931.08
2023-03-29T19:03:29.534Z,99935.67
2023-03-29T19:08:37.330Z,99930.88
2023-03-29T19:13:47.176Z,99924.80
2023-03-29T19:18:52.618Z,99923.28
2023-03-29T19:23:56.403Z,99912.91
2023-03-29T19:29:02.489Z,99906.40
2023-03-29T19:34:11.879Z,99900.55
2023-03-29T19:39:18.998Z,99890.70
2023-03-29T19:44:24.910Z,99891.88
2023-03-29T19:49:29.850Z,99887.27
2023-03-29T19:54:34.824Z,99879.77
2023-03-29T19:59:41.231Z,99872.73
2023-03-29T20:04:46.908Z,99867.16
2023-03-29T20:09:52.614Z,99864.88
2023-03-29T20:14:56.367Z,99868.40
2023-03-29T20:20:01.137Z,99868.95
2023-03-29T20:25:05.862Z,99868.35
2023-03-29T20:30:11.421Z,99860.95
2023-03-29T20:35:16.016Z,99855.63
2023-03-29T20:40:21.240Z,99852.64
2023-03-29T20:45:26.275Z,99843.90
2023-03-29T20:50:30.762Z,99841.89
2023-03-29T20:55:35.482Z,99842.15
2023-03-29T21:00:40.940Z,99841.91
2023-03-29T21:05:45.656Z,99839.61
2023-03-29T21:10:49.581Z,99839.84
2023-03-29T21:15:54.241Z,99845.33
2023-03-29T21:20:58.268Z,99843.45
2023-03-29T21:26:03.510Z,99839.29
2023-03-29T21:31:08.499Z,99836.27
2023-03-29T21:36:13.183Z,99837.61
2023-03-29T21:41:18.763Z,99828.83
2023-03-29T21:46:25.130Z,99828.35
2023-03-29T21:51:29.188Z,99830.91
2023-03-29T21:56:33.530Z,99840.84
2023-03-29T22:01:38.598Z,99838.55
2023-03-29T22:06:43.662Z,99832.02
2023-03-29T22:11:49.140Z,99829.14
2023-03-29T22:16:53.636Z,99828.77
2023-03-29T22:22:02.122Z,99818.97
2023-03-29T22:27:07.015Z,99812.24
2023-03-29T22:32:11.530Z,99808.70
2023-03-29T22:37:15.584Z,99799.11
2023-03-29T22:48:09.158Z,99789.35
2023-03-29T22:53:14.054Z,99778.93
2023-03-29T23:03:54.157Z,99774.73
2023-03-29T23:08:58.515Z,99774.06
2023-03-29T23:14:06.461Z,99776.13
2023-03-29T23:19:10.927Z,99765.20
2023-03-29T23:24:19.252Z,99770.52
2023-03-29T23:29:26.724Z,99770.91
2023-03-29T23:34:31.056Z,99761.81
2023-03-29T23:39:35.176Z,99756.05
2023-03-29T23:44:40.308Z,99758.80
2023-03-29T23:49:45.778Z,99757.41
2023-03-29T23:54:51.990Z,99751.69
